| time (UTC) | temp C | wind direction | speed KPH | gust KPH | rain 1hr cm | rain 24hr cm | rain mn cm | humidity % | barometer mb |
| 20260506162531 | 16 | 65 | 0.0 | 6.4 | 0.18 | 0.33 | 0.33 | 92 | 1007.6 |
| 20260506162036 | 16 | 22 | 0.0 | 9.7 | 0.15 | 0.30 | 0.30 | 93 | 1007.6 |
| 20260506161550 | 16 | 176 | 3.2 | 12.9 | 0.15 | 0.30 | 0.30 | 92 | 1007.5 |
| 20260506161033 | 16 | 118 | 1.6 | 12.9 | 0.15 | 0.28 | 0.28 | 92 | 1007.7 |
| 20260506160532 | 16 | 49 | 3.2 | 12.9 | 0.15 | 0.28 | 0.28 | 92 | 1007.7 |
| 20260506160119 | 16 | 232 | 1.6 | 11.3 | 0.18 | 0.28 | 0.28 | 92 | 1008.0 |
| 20260506155531 | 16 | 62 | 1.6 | 19.3 | 0.15 | 0.25 | 0.25 | 91 | 1008.5 |
| 20260506155032 | 16 | 41 | 3.2 | 19.3 | 0.15 | 0.23 | 0.23 | 91 | 1008.6 |
| 20260506154549 | 16 | 23 | 3.2 | 14.5 | 0.13 | 0.20 | 0.20 | 91 | 1008.8 |
| 20260506154033 | 16 | 160 | 1.6 | 11.3 | 0.13 | 0.18 | 0.18 | 90 | 1008.8 |
| 20260506153532 | 16 | 175 | 4.8 | 11.3 | 0.15 | 0.18 | 0.18 | 90 | 1008.8 |
| 20260506153047 | 16 | 134 | 1.6 | 6.4 | 0.15 | 0.15 | 0.15 | 90 | 1008.8 |
| 20260506152534 | 17 | 0 | 0.0 | 6.4 | 0.15 | 0.15 | 0.15 | 90 | 1008.8 |
| 20260506152033 | 17 | 294 | 0.0 | 4.8 | 0.15 | 0.15 | 0.15 | 90 | 1008.6 |
| 20260506151544 | 17 | 0 | 0.0 | 4.8 | 0.15 | 0.15 | 0.15 | 90 | 1008.6 |
| 20260506151032 | 17 | 176 | 1.6 | 4.8 | 0.13 | 0.13 | 0.13 | 90 | 1008.5 |
| 20260506150530 | 17 | 124 | 0.0 | 4.8 | 0.13 | 0.13 | 0.13 | 90 | 1008.4 |
| 20260506150049 | 17 | 33 | 0.0 | 4.8 | 0.10 | 0.10 | 0.10 | 89 | 1008.6 |
| 20260506145537 | 17 | 0 | 0.0 | 6.4 | 0.10 | 0.10 | 0.10 | 88 | 1008.5 |
| 20260506145033 | 17 | 161 | 1.6 | 6.4 | 0.08 | 0.08 | 0.08 | 88 | 1008.4 |
| 20260506144559 | 17 | 0 | 0.0 | 6.4 | 0.08 | 0.08 | 0.08 | 87 | 1008.5 |
| 20260506144032 | 17 | 84 | 0.0 | 3.2 | 0.05 | 0.05 | 0.05 | 85 | 1008.7 |
| 20260506143532 | 18 | 193 | 1.6 | 6.4 | 0.03 | 0.03 | 0.03 | 85 | 1008.8 |
| 20260506143048 | 18 | 103 | 1.6 | 8.0 | 0.00 | 0.00 | 0.00 | 83 | 1008.8 |
| 20260506142531 | 18 | 157 | 1.6 | 9.7 | 0.00 | 0.00 | 0.00 | 82 | 1008.8 |
| 20260506142034 | 18 | 160 | 1.6 | 9.7 | 0.00 | 0.00 | 0.00 | 82 | 1008.6 |
| 20260506141541 | 18 | 285 | 3.2 | 9.7 | 0.00 | 0.00 | 0.00 | 81 | 1008.6 |
| 20260506141034 | 18 | 158 | 1.6 | 6.4 | 0.00 | 0.00 | 0.00 | 82 | 1008.6 |
| 20260506140536 | 18 | 64 | 0.0 | 4.8 | 0.00 | 0.00 | 0.00 | 82 | 1008.5 |
| 20260506140045 | 18 | 0 | 0.0 | 4.8 | 0.00 | 0.00 | 0.00 | 82 | 1008.5 |
| 20260506135531 | 18 | 266 | 0.0 | 8.0 | 0.00 | 0.00 | 0.00 | 82 | 1008.5 |
| 20260506135032 | 18 | 236 | 3.2 | 8.0 | 0.00 | 0.00 | 0.00 | 80 | 1008.6 |
| 20260506134548 | 18 | 153 | 1.6 | 8.0 | 0.00 | 0.00 | 0.00 | 80 | 1008.6 |
| 20260506134035 | 18 | 0 | 0.0 | 8.0 | 0.00 | 0.00 | 0.00 | 80 | 1008.7 |
| 20260506133533 | 18 | 113 | 1.6 | 14.5 | 0.00 | 0.00 | 0.00 | 80 | 1008.7 |
| 20260506133048 | 18 | 140 | 1.6 | 14.5 | 0.00 | 0.00 | 0.00 | 80 | 1008.7 |
| 20260506132532 | 18 | 283 | 0.0 | 9.7 | 0.00 | 0.00 | 0.00 | 79 | 1008.8 |
| 20260506132035 | 18 | 220 | 1.6 | 9.7 | 0.00 | 0.00 | 0.00 | 79 | 1008.8 |
| 20260506131540 | 18 | 218 | 0.0 | 9.7 | 0.00 | 0.00 | 0.00 | 79 | 1008.9 |
| 20260506131031 | 18 | 145 | 1.6 | 9.7 | 0.00 | 0.00 | 0.00 | 78 | 1008.8 |
| 20260506130533 | 18 | 355 | 0.0 | 9.7 | 0.00 | 0.00 | 0.00 | 77 | 1008.9 |
| 20260506130057 | 18 | 136 | 0.0 | 9.7 | 0.00 | 0.00 | 0.00 | 77 | 1008.8 |
| 20260506125531 | 18 | 132 | 1.6 | 9.7 | 0.00 | 0.00 | 0.00 | 77 | 1008.9 |
| 20260506125033 | 18 | 84 | 0.0 | 9.7 | 0.00 | 0.00 | 0.00 | 77 | 1008.8 |
| 20260506124548 | 18 | 66 | 1.6 | 9.7 | 0.00 | 0.00 | 0.00 | 77 | 1008.7 |
| 20260506124032 | 18 | 245 | 1.6 | 9.7 | 0.00 | 0.00 | 0.00 | 77 | 1008.7 |
| 20260506123532 | 18 | 134 | 1.6 | 8.0 | 0.00 | 0.00 | 0.00 | 77 | 1008.6 |
| 20260506123043 | 18 | 273 | 1.6 | 8.0 | 0.00 | 0.00 | 0.00 | 77 | 1008.5 |
| 20260506122533 | 18 | 48 | 0.0 | 8.0 | 0.00 | 0.00 | 0.00 | 77 | 1008.5 |
| 20260506122033 | 18 | 118 | 1.6 | 6.4 | 0.00 | 0.00 | 0.00 | 78 | 1008.5 |
| 20260506121545 | 18 | 68 | 1.6 | 9.7 | 0.00 | 0.00 | 0.00 | 77 | 1008.6 |
| 20260506121032 | 18 | 129 | 1.6 | 11.3 | 0.00 | 0.00 | 0.00 | 78 | 1008.7 |
| 20260506120532 | 18 | 56 | 3.2 | 14.5 | 0.00 | 0.00 | 0.00 | 77 | 1008.6 |
| 20260506120044 | 18 | 64 | 1.6 | 14.5 | 0.00 | 0.00 | 0.00 | 77 | 1008.6 |
| 20260506115534 | 18 | 0 | 3.2 | 14.5 | 0.00 | 0.00 | 0.00 | 77 | 1008.7 |
| 20260506115031 | 18 | 349 | 1.6 | 8.0 | 0.00 | 0.00 | 0.00 | 77 | 1008.5 |
| 20260506114542 | 18 | 136 | 1.6 | 14.5 | 0.00 | 0.00 | 0.00 | 77 | 1008.6 |
| 20260506114032 | 18 | 76 | 3.2 | 14.5 | 0.00 | 0.00 | 0.00 | 77 | 1008.6 |
| 20260506113534 | 18 | 235 | 1.6 | 8.0 | 0.00 | 0.00 | 0.00 | 77 | 1008.7 |
| 20260506113042 | 18 | 172 | 3.2 | 14.5 | 0.00 | 0.00 | 0.00 | 77 | 1008.6 |
| 20260506112534 | 18 | 113 | 1.6 | 14.5 | 0.00 | 0.00 | 0.00 | 77 | 1008.6 |
| 20260506112031 | 18 | 101 | 3.2 | 14.5 | 0.00 | 0.00 | 0.00 | 77 | 1008.7 |
| 20260506111543 | 18 | 125 | 1.6 | 8.0 | 0.00 | 0.00 | 0.00 | 77 | 1008.6 |
| 20260506111031 | 18 | 219 | 1.6 | 8.0 | 0.00 | 0.00 | 0.00 | 78 | 1008.4 |
| 20260506110535 | 18 | 107 | 1.6 | 8.0 | 0.00 | 0.00 | 0.00 | 78 | 1008.4 |
| 20260506110047 | 18 | 148 | 0.0 | 8.0 | 0.00 | 0.00 | 0.00 | 78 | 1008.4 |
| 20260506105533 | 18 | 191 | 1.6 | 8.0 | 0.00 | 0.00 | 0.00 | 78 | 1008.1 |
| 20260506105033 | 18 | 114 | 1.6 | 4.8 | 0.00 | 0.00 | 0.00 | 78 | 1008.2 |
| 20260506104541 | 18 | 0 | 1.6 | 3.2 | 0.00 | 0.00 | 0.00 | 78 | 1008.2 |
| 20260506104031 | 18 | 122 | 0.0 | 4.8 | 0.00 | 0.00 | 0.00 | 77 | 1008.1 |
| 20260506103534 | 18 | 0 | 0.0 | 4.8 | 0.00 | 0.00 | 0.00 | 77 | 1008.0 |
| 20260506103052 | 18 | 4 | 1.6 | 6.4 | 0.00 | 0.00 | 0.00 | 77 | 1008.0 |
| 20260506102532 | 18 | 149 | 0.0 | 6.4 | 0.00 | 0.00 | 0.00 | 77 | 1007.8 |
| 20260506102032 | 18 | 0 | 1.6 | 6.4 | 0.00 | 0.00 | 0.00 | 76 | 1008.0 |
| 20260506101544 | 18 | 88 | 1.6 | 8.0 | 0.00 | 0.00 | 0.00 | 76 | 1007.9 |
| 20260506101032 | 18 | 79 | 1.6 | 8.0 | 0.00 | 0.00 | 0.00 | 76 | 1008.0 |
| 20260506100535 | 18 | 172 | 1.6 | 4.8 | 0.00 | 0.00 | 0.00 | 76 | 1008.2 |
| 20260506100042 | 18 | 335 | 1.6 | 12.9 | 0.00 | 0.00 | 0.00 | 76 | 1008.1 |
| 20260506095533 | 18 | 109 | 3.2 | 12.9 | 0.00 | 0.05 | 0.00 | 76 | 1008.2 |
| 20260506095033 | 18 | 231 | 1.6 | 11.3 | 0.00 | 0.05 | 0.00 | 75 | 1008.1 |
| 20260506094550 | 18 | 124 | 3.2 | 11.3 | 0.00 | 0.05 | 0.00 | 75 | 1008.0 |
| 20260506094032 | 18 | 8 | 1.6 | 9.7 | 0.00 | 0.05 | 0.00 | 75 | 1007.9 |
| 20260506093532 | 18 | 151 | 1.6 | 9.7 | 0.00 | 0.05 | 0.00 | 75 | 1008.2 |
| 20260506093040 | 18 | 120 | 1.6 | 9.7 | 0.00 | 0.05 | 0.00 | 75 | 1008.1 |
| 20260506092532 | 18 | 0 | 3.2 | 9.7 | 0.00 | 0.05 | 0.00 | 75 | 1008.0 |
| 20260506092034 | 18 | 30 | 0.0 | 9.7 | 0.00 | 0.05 | 0.00 | 75 | 1007.9 |
| 20260506091548 | 18 | 138 | 3.2 | 14.5 | 0.00 | 0.05 | 0.00 | 75 | 1007.8 |
| 20260506091032 | 18 | 153 | 3.2 | 14.5 | 0.00 | 0.05 | 0.00 | 75 | 1008.0 |
| 20260506090532 | 18 | 0 | 0.0 | 11.3 | 0.00 | 0.05 | 0.00 | 75 | 1008.0 |
| 20260506090050 | 18 | 61 | 1.6 | 11.3 | 0.00 | 0.05 | 0.00 | 74 | 1008.1 |
| 20260506085533 | 18 | 145 | 1.6 | 11.3 | 0.00 | 0.05 | 0.00 | 74 | 1008.1 |
| 20260506085031 | 18 | 98 | 1.6 | 9.7 | 0.00 | 0.05 | 0.00 | 74 | 1008.2 |
| 20260506084600 | 18 | 0 | 1.6 | 6.4 | 0.00 | 0.05 | 0.00 | 74 | 1008.3 |
| 20260506084031 | 18 | 0 | 1.6 | 9.7 | 0.00 | 0.05 | 0.00 | 74 | 1008.3 |
| 20260506083532 | 18 | 28 | 3.2 | 12.9 | 0.00 | 0.05 | 0.00 | 74 | 1008.3 |
| 20260506083047 | 18 | 339 | 1.6 | 12.9 | 0.00 | 0.05 | 0.00 | 74 | 1008.2 |
| 20260506082532 | 18 | 181 | 3.2 | 12.9 | 0.00 | 0.05 | 0.00 | 74 | 1008.3 |
| 20260506082032 | 18 | 112 | 0.0 | 9.7 | 0.00 | 0.05 | 0.00 | 75 | 1008.3 |
| 20260506081542 | 18 | 119 | 0.0 | 6.4 | 0.00 | 0.05 | 0.00 | 75 | 1008.5 |
| 20260506081033 | 17 | 91 | 1.6 | 12.9 | 0.00 | 0.05 | 0.00 | 75 | 1008.3 |
| 20260506080532 | 17 | 0 | 1.6 | 12.9 | 0.00 | 0.05 | 0.00 | 75 | 1008.3 |
| 20260506073056 | 17 | 0 | 0.0 | 4.8 | 0.00 | 0.05 | 0.00 | 74 | 1008.3 |
| 20260506072531 | 18 | 0 | 0.0 | 3.2 | 0.00 | 0.05 | 0.00 | 73 | 1008.4 |
| 20260506072032 | 18 | 0 | 0.0 | 3.2 | 0.00 | 0.05 | 0.00 | 72 | 1008.5 |
| 20260506071547 | 18 | 94 | 0.0 | 3.2 | 0.00 | 0.05 | 0.00 | 72 | 1008.5 |
| 20260506071036 | 18 | 90 | 1.6 | 3.2 | 0.00 | 0.05 | 0.00 | 71 | 1008.5 |
| 20260506070532 | 18 | 0 | 0.0 | 3.2 | 0.00 | 0.05 | 0.00 | 71 | 1008.6 |
| 20260506062034 | 19 | 281 | 0.0 | 4.8 | 0.00 | 0.05 | 0.00 | 68 | 1008.8 |
| 20260506061556 | 19 | 0 | 0.0 | 4.8 | 0.00 | 0.05 | 0.00 | 67 | 1008.8 |
| 20260506061035 | 19 | 139 | 1.6 | 3.2 | 0.00 | 0.05 | 0.00 | 67 | 1009.0 |
| 20260506060534 | 19 | 121 | 0.0 | 3.2 | 0.00 | 0.05 | 0.00 | 67 | 1009.0 |
| 20260506051032 | 18 | 107 | 0.0 | 6.4 | 0.00 | 0.05 | 0.00 | 70 | 1009.2 |
| 20260506050534 | 17 | 288 | 1.6 | 6.4 | 0.00 | 0.05 | 0.00 | 72 | 1009.2 |
| 20260506045033 | 17 | 0 | 0.0 | 1.6 | 0.00 | 0.05 | 0.00 | 72 | 1009.2 |
| 20260506044552 | 17 | 75 | 0.0 | 4.8 | 0.00 | 0.05 | 0.00 | 72 | 1009.2 |
| 20260506044033 | 17 | 139 | 0.0 | 4.8 | 0.00 | 0.05 | 0.00 | 72 | 1009.2 |
| 20260506043532 | 17 | 139 | 1.6 | 4.8 | 0.00 | 0.05 | 0.00 | 72 | 1009.3 |
| 20260506043046 | 17 | 82 | 0.0 | 1.6 | 0.00 | 0.05 | 0.00 | 71 | 1009.2 |
| 20260506042532 | 18 | 0 | 0.0 | 1.6 | 0.00 | 0.05 | 0.00 | 69 | 1009.2 |
| 20260506042032 | 18 | 0 | 0.0 | 3.2 | 0.00 | 0.05 | 0.00 | 69 | 1009.4 |
| 20260506041544 | 18 | 63 | 0.0 | 3.2 | 0.00 | 0.05 | 0.00 | 68 | 1009.3 |
| 20260506041031 | 18 | 65 | 0.0 | 3.2 | 0.00 | 0.05 | 0.00 | 68 | 1009.2 |
| 20260506040532 | 18 | 0 | 0.0 | 3.2 | 0.00 | 0.05 | 0.00 | 67 | 1009.2 |
| 20260506040047 | 18 | 0 | 0.0 | 3.2 | 0.00 | 0.05 | 0.00 | 66 | 1009.3 |
| 20260506035532 | 18 | 91 | 0.0 | 3.2 | 0.00 | 0.05 | 0.05 | 66 | 1009.3 |
| 20260506035033 | 18 | 74 | 0.0 | 3.2 | 0.00 | 0.05 | 0.05 | 65 | 1009.2 |
| 20260506034550 | 19 | 89 | 0.0 | 4.8 | 0.00 | 0.05 | 0.05 | 64 | 1009.2 |
| 20260506034033 | 19 | 0 | 1.6 | 4.8 | 0.00 | 0.05 | 0.05 | 63 | 1009.2 |
| 20260506033533 | 20 | 226 | 0.0 | 8.0 | 0.00 | 0.05 | 0.05 | 61 | 1009.2 |
| 20260506033049 | 20 | 105 | 0.0 | 8.0 | 0.00 | 0.05 | 0.05 | 60 | 1009.1 |
| 20260506032532 | 21 | 90 | 0.0 | 11.3 | 0.00 | 0.05 | 0.05 | 58 | 1009.0 |
| 20260506032032 | 21 | 128 | 1.6 | 11.3 | 0.00 | 0.05 | 0.05 | 57 | 1009.0 |
| 20260506031551 | 21 | 266 | 1.6 | 11.3 | 0.00 | 0.05 | 0.05 | 56 | 1009.0 |
| 20260506031035 | 21 | 291 | 0.0 | 8.0 | 0.00 | 0.05 | 0.05 | 56 | 1009.0 |
| 20260506030531 | 21 | 297 | 0.0 | 8.0 | 0.00 | 0.05 | 0.05 | 56 | 1008.9 |
| 20260506030052 | 21 | 307 | 0.0 | 8.0 | 0.00 | 0.05 | 0.05 | 55 | 1009.0 |
| 20260506025532 | 21 | 0 | 1.6 | 6.4 | 0.00 | 0.05 | 0.05 | 55 | 1008.9 |
| 20260506025036 | 21 | 274 | 0.0 | 6.4 | 0.00 | 0.05 | 0.05 | 54 | 1008.8 |
| 20260506024558 | 22 | 332 | 1.6 | 6.4 | 0.00 | 0.05 | 0.05 | 53 | 1008.9 |
| 20260506024032 | 22 | 103 | 0.0 | 8.0 | 0.00 | 0.05 | 0.05 | 53 | 1009.0 |
| 20260506023536 | 22 | 76 | 1.6 | 11.3 | 0.00 | 0.05 | 0.05 | 53 | 1009.0 |
| 20260506023045 | 22 | 44 | 1.6 | 11.3 | 0.00 | 0.05 | 0.05 | 52 | 1009.0 |
| 20260506022532 | 22 | 266 | 1.6 | 11.3 | 0.00 | 0.05 | 0.05 | 52 | 1009.0 |
| 20260506022034 | 22 | 332 | 1.6 | 9.7 | 0.00 | 0.05 | 0.05 | 52 | 1008.9 |
| 20260506021601 | 22 | 311 | 1.6 | 9.7 | 0.00 | 0.05 | 0.05 | 52 | 1008.9 |
| 20260506021033 | 22 | 115 | 1.6 | 14.5 | 0.00 | 0.05 | 0.05 | 52 | 1008.9 |
| 20260506020533 | 22 | 101 | 3.2 | 14.5 | 0.00 | 0.05 | 0.05 | 53 | 1008.9 |
| 20260506020040 | 22 | 11 | 1.6 | 8.0 | 0.00 | 0.05 | 0.05 | 53 | 1008.8 |
| 20260506015532 | 22 | 0 | 1.6 | 8.0 | 0.00 | 0.05 | 0.05 | 52 | 1008.8 |
| 20260506015034 | 22 | 0 | 0.0 | 9.7 | 0.00 | 0.05 | 0.05 | 53 | 1008.8 |
| 20260506014545 | 22 | 0 | 1.6 | 9.7 | 0.00 | 0.05 | 0.05 | 52 | 1008.6 |
| 20260506014040 | 22 | 167 | 1.6 | 9.7 | 0.00 | 0.05 | 0.05 | 52 | 1008.7 |
| 20260506013532 | 22 | 0 | 1.6 | 11.3 | 0.00 | 0.05 | 0.05 | 51 | 1008.5 |
| 20260506013055 | 22 | 113 | 3.2 | 11.3 | 0.00 | 0.05 | 0.05 | 51 | 1008.4 |
| 20260506012533 | 22 | 150 | 3.2 | 11.3 | 0.00 | 0.05 | 0.05 | 51 | 1008.3 |
| 20260506012033 | 22 | 103 | 1.6 | 6.4 | 0.00 | 0.05 | 0.05 | 51 | 1008.3 |
| 20260506011601 | 22 | 87 | 0.0 | 4.8 | 0.00 | 0.05 | 0.05 | 51 | 1008.2 |
| 20260506011033 | 22 | 0 | 0.0 | 4.8 | 0.00 | 0.05 | 0.05 | 49 | 1008.3 |
| 20260506010532 | 23 | 79 | 0.0 | 4.8 | 0.00 | 0.05 | 0.05 | 49 | 1008.2 |
| 20260506010054 | 23 | 0 | 1.6 | 11.3 | 0.00 | 0.05 | 0.05 | 48 | 1008.1 |
| 20260506005533 | 23 | 164 | 1.6 | 11.3 | 0.00 | 0.05 | 0.05 | 47 | 1008.1 |
| 20260506005032 | 23 | 88 | 3.2 | 11.3 | 0.00 | 0.05 | 0.05 | 47 | 1008.1 |
| 20260506004546 | 23 | 103 | 1.6 | 11.3 | 0.00 | 0.05 | 0.05 | 47 | 1008.0 |
| 20260506004033 | 23 | 77 | 1.6 | 8.0 | 0.00 | 0.05 | 0.05 | 46 | 1008.0 |
| 20260506003535 | 23 | 98 | 1.6 | 8.0 | 0.00 | 0.05 | 0.05 | 47 | 1007.9 |
| 20260506003105 | 23 | 139 | 1.6 | 8.0 | 0.00 | 0.05 | 0.05 | 46 | 1007.8 |
| 20260506002535 | 23 | 213 | 1.6 | 8.0 | 0.00 | 0.05 | 0.05 | 46 | 1007.7 |
| 20260506002032 | 23 | 197 | 1.6 | 8.0 | 0.00 | 0.05 | 0.05 | 45 | 1007.6 |
| 20260506001550 | 23 | 153 | 1.6 | 8.0 | 0.00 | 0.05 | 0.05 | 45 | 1007.7 |
| 20260506001034 | 24 | 345 | 1.6 | 6.4 | 0.00 | 0.05 | 0.05 | 44 | 1007.6 |
| 20260506000533 | 24 | 0 | 1.6 | 6.4 | 0.00 | 0.05 | 0.05 | 44 | 1007.6 |
| 20260506000049 | 24 | 30 | 1.6 | 9.7 | 0.00 | 0.05 | 0.05 | 43 | 1007.6 |
| 20260505235535 | 24 | 330 | 1.6 | 11.3 | 0.00 | 0.05 | 0.05 | 43 | 1007.6 |
| 20260505235035 | 25 | 61 | 1.6 | 11.3 | 0.00 | 0.05 | 0.05 | 43 | 1007.4 |
| 20260505234545 | 25 | 0 | 1.6 | 11.3 | 0.00 | 0.05 | 0.05 | 43 | 1007.5 |
| 20260505234034 | 25 | 311 | 3.2 | 16.1 | 0.00 | 0.05 | 0.05 | 43 | 1007.4 |
| 20260505233534 | 25 | 148 | 3.2 | 16.1 | 0.00 | 0.05 | 0.05 | 42 | 1007.4 |
| 20260505233046 | 25 | 70 | 1.6 | 14.5 | 0.00 | 0.05 | 0.05 | 43 | 1007.5 |
| 20260505232532 | 25 | 196 | 3.2 | 14.5 | 0.00 | 0.05 | 0.05 | 42 | 1007.3 |
| 20260505232041 | 25 | 189 | 4.8 | 14.5 | 0.00 | 0.05 | 0.05 | 42 | 1007.4 |
| 20260505231557 | 25 | 121 | 1.6 | 11.3 | 0.00 | 0.05 | 0.05 | 43 | 1007.3 |
| 20260505231034 | 25 | 101 | 1.6 | 9.7 | 0.00 | 0.05 | 0.05 | 43 | 1007.2 |
| 20260505230533 | 26 | 341 | 1.6 | 9.7 | 0.00 | 0.05 | 0.05 | 42 | 1007.2 |
| 20260505230050 | 26 | 138 | 3.2 | 12.9 | 0.00 | 0.05 | 0.05 | 41 | 1007.1 |
| 20260505225536 | 26 | 223 | 4.8 | 19.3 | 0.00 | 0.05 | 0.05 | 39 | 1007.1 |
| 20260505225033 | 26 | 237 | 4.8 | 19.3 | 0.00 | 0.05 | 0.05 | 40 | 1007.1 |
| 20260505224549 | 26 | 10 | 3.2 | 19.3 | 0.00 | 0.05 | 0.05 | 40 | 1007.0 |
| 20260505224036 | 26 | 164 | 4.8 | 19.3 | 0.00 | 0.05 | 0.05 | 40 | 1006.9 |
| 20260505223533 | 26 | 103 | 6.4 | 25.7 | 0.00 | 0.05 | 0.05 | 41 | 1007.2 |
| 20260505223047 | 26 | 276 | 4.8 | 25.7 | 0.00 | 0.05 | 0.05 | 41 | 1007.0 |
| 20260505222533 | 26 | 188 | 6.4 | 22.5 | 0.00 | 0.05 | 0.05 | 40 | 1007.0 |
| 20260505222033 | 26 | 261 | 4.8 | 19.3 | 0.00 | 0.05 | 0.05 | 41 | 1006.9 |
| 20260505221543 | 26 | 292 | 6.4 | 19.3 | 0.00 | 0.05 | 0.05 | 41 | 1006.8 |
| 20260505221031 | 26 | 103 | 3.2 | 24.1 | 0.00 | 0.05 | 0.05 | 41 | 1006.8 |
| 20260505220533 | 26 | 135 | 4.8 | 24.1 | 0.00 | 0.05 | 0.05 | 41 | 1006.8 |
| 20260505220043 | 26 | 182 | 6.4 | 17.7 | 0.00 | 0.05 | 0.05 | 39 | 1006.9 |
| 20260505215534 | 27 | 32 | 4.8 | 17.7 | 0.00 | 0.05 | 0.05 | 39 | 1007.0 |
| 20260505215033 | 27 | 99 | 6.4 | 14.5 | 0.00 | 0.05 | 0.05 | 40 | 1006.8 |
| 20260505214606 | 27 | 297 | 4.8 | 24.1 | 0.00 | 0.05 | 0.05 | 39 | 1007.0 |
| 20260505214031 | 27 | 359 | 6.4 | 24.1 | 0.00 | 0.05 | 0.05 | 39 | 1006.8 |
| 20260505213531 | 27 | 51 | 4.8 | 19.3 | 0.00 | 0.05 | 0.05 | 38 | 1006.8 |
| 20260505213046 | 27 | 114 | 8.0 | 19.3 | 0.00 | 0.05 | 0.05 | 39 | 1006.9 |
| 20260505212533 | 27 | 198 | 3.2 | 19.3 | 0.00 | 0.05 | 0.05 | 39 | 1006.9 |
| 20260505212033 | 27 | 143 | 6.4 | 19.3 | 0.00 | 0.05 | 0.05 | 41 | 1006.7 |
| 20260505211549 | 27 | 102 | 4.8 | 24.1 | 0.00 | 0.05 | 0.05 | 39 | 1006.7 |
| 20260505211033 | 27 | 220 | 9.7 | 24.1 | 0.00 | 0.05 | 0.05 | 39 | 1006.7 |
| 20260505210532 | 28 | 79 | 4.8 | 19.3 | 0.00 | 0.05 | 0.05 | 37 | 1006.6 |
| 20260505210047 | 28 | 259 | 6.4 | 20.9 | 0.00 | 0.05 | 0.05 | 38 | 1006.6 |
| 20260505205532 | 28 | 174 | 4.8 | 20.9 | 0.00 | 0.05 | 0.05 | 38 | 1006.6 |
| 20260505205033 | 28 | 221 | 3.2 | 17.7 | 0.00 | 0.05 | 0.05 | 40 | 1006.6 |
| 20260505204547 | 28 | 277 | 8.0 | 30.6 | 0.00 | 0.05 | 0.05 | 38 | 1006.4 |
| 20260505204032 | 28 | 115 | 8.0 | 30.6 | 0.00 | 0.05 | 0.05 | 36 | 1006.4 |
| 20260505203532 | 28 | 243 | 4.8 | 24.1 | 0.00 | 0.05 | 0.05 | 37 | 1006.3 |
| 20260505203049 | 28 | 106 | 4.8 | 24.1 | 0.00 | 0.05 | 0.05 | 38 | 1006.5 |
| 20260505202533 | 28 | 254 | 6.4 | 24.1 | 0.00 | 0.05 | 0.05 | 38 | 1006.5 |
| 20260505202033 | 28 | 200 | 4.8 | 20.9 | 0.00 | 0.05 | 0.05 | 39 | 1006.4 |
| 20260505201546 | 28 | 103 | 4.8 | 14.5 | 0.00 | 0.05 | 0.05 | 38 | 1006.6 |
| 20260505201032 | 28 | 114 | 6.4 | 24.1 | 0.00 | 0.05 | 0.05 | 37 | 1006.5 |
| 20260505200532 | 28 | 153 | 6.4 | 24.1 | 0.00 | 0.05 | 0.05 | 38 | 1006.8 |
| 20260505200056 | 28 | 264 | 6.4 | 24.1 | 0.00 | 0.05 | 0.05 | 38 | 1006.7 |
| 20260505195534 | 28 | 167 | 4.8 | 24.1 | 0.00 | 0.05 | 0.05 | 36 | 1006.6 |
| 20260505195036 | 28 | 290 | 6.4 | 24.1 | 0.00 | 0.05 | 0.05 | 37 | 1006.6 |
| 20260505194541 | 28 | 139 | 8.0 | 24.1 | 0.00 | 0.05 | 0.05 | 37 | 1006.7 |
| 20260505194032 | 28 | 141 | 6.4 | 20.9 | 0.00 | 0.05 | 0.05 | 38 | 1006.8 |
| 20260505193532 | 28 | 166 | 6.4 | 20.9 | 0.00 | 0.05 | 0.05 | 36 | 1006.7 |
| 20260505193050 | 28 | 170 | 6.4 | 14.5 | 0.00 | 0.05 | 0.05 | 37 | 1006.7 |
| 20260505192533 | 28 | 293 | 4.8 | 14.5 | 0.00 | 0.05 | 0.05 | 35 | 1006.7 |
| 20260505192032 | 28 | 145 | 3.2 | 22.5 | 0.00 | 0.05 | 0.05 | 36 | 1006.7 |
| 20260505191546 | 28 | 152 | 8.0 | 22.5 | 0.00 | 0.05 | 0.05 | 35 | 1006.7 |
| 20260505191032 | 28 | 149 | 4.8 | 22.5 | 0.00 | 0.05 | 0.05 | 37 | 1006.7 |
| 20260505190534 | 28 | 91 | 6.4 | 22.5 | 0.00 | 0.05 | 0.05 | 37 | 1006.8 |
| 20260505190047 | 28 | 248 | 6.4 | 20.9 | 0.00 | 0.05 | 0.05 | 36 | 1007.2 |
| 20260505185531 | 28 | 61 | 6.4 | 20.9 | 0.00 | 0.05 | 0.05 | 37 | 1007.0 |
| 20260505185035 | 28 | 172 | 6.4 | 30.6 | 0.00 | 0.05 | 0.05 | 39 | 1007.1 |
| 20260505184548 | 28 | 349 | 6.4 | 30.6 | 0.00 | 0.05 | 0.05 | 37 | 1007.1 |
| 20260505184033 | 28 | 58 | 8.0 | 27.4 | 0.00 | 0.05 | 0.05 | 37 | 1007.5 |
| 20260505183534 | 28 | 260 | 4.8 | 14.5 | 0.00 | 0.05 | 0.05 | 40 | 1007.3 |
| 20260505183057 | 28 | 61 | 1.6 | 19.3 | 0.00 | 0.05 | 0.05 | 39 | 1007.4 |
| 20260505182533 | 28 | 288 | 6.4 | 19.3 | 0.00 | 0.05 | 0.05 | 38 | 1007.4 |
| 20260505182035 | 28 | 186 | 4.8 | 19.3 | 0.00 | 0.05 | 0.05 | 40 | 1007.4 |
| 20260505181546 | 28 | 112 | 4.8 | 25.7 | 0.00 | 0.05 | 0.05 | 38 | 1007.5 |
| 20260505181031 | 28 | 254 | 6.4 | 25.7 | 0.00 | 0.05 | 0.05 | 37 | 1007.7 |
| 20260505180533 | 28 | 129 | 4.8 | 25.7 | 0.00 | 0.05 | 0.05 | 41 | 1007.7 |
| 20260505180051 | 27 | 321 | 6.4 | 17.7 | 0.00 | 0.05 | 0.05 | 40 | 1007.9 |
| 20260505175533 | 28 | 271 | 6.4 | 16.1 | 0.00 | 0.05 | 0.05 | 40 | 1007.9 |
| 20260505175032 | 28 | 120 | 3.2 | 16.1 | 0.00 | 0.05 | 0.05 | 41 | 1007.9 |
| 20260505174557 | 27 | 302 | 3.2 | 16.1 | 0.00 | 0.05 | 0.05 | 40 | 1007.9 |
| 20260505174033 | 28 | 84 | 4.8 | 16.1 | 0.00 | 0.05 | 0.05 | 43 | 1008.0 |
| 20260505173534 | 27 | 94 | 4.8 | 19.3 | 0.00 | 0.05 | 0.05 | 42 | 1008.0 |
| 20260505173041 | 27 | 349 | 6.4 | 19.3 | 0.00 | 0.05 | 0.05 | 45 | 1008.0 |
| 20260505172535 | 27 | 72 | 3.2 | 12.9 | 0.00 | 0.05 | 0.05 | 46 | 1008.1 |
| 20260505172033 | 27 | 281 | 3.2 | 16.1 | 0.00 | 0.05 | 0.05 | 42 | 1008.1 |
| 20260505171549 | 27 | 114 | 4.8 | 16.1 | 0.00 | 0.05 | 0.05 | 44 | 1008.0 |
| 20260505171033 | 27 | 227 | 4.8 | 17.7 | 0.00 | 0.05 | 0.05 | 46 | 1008.1 |
| 20260505170531 | 27 | 141 | 6.4 | 17.7 | 0.00 | 0.05 | 0.05 | 46 | 1008.2 |
| 20260505170046 | 27 | 232 | 4.8 | 11.3 | 0.00 | 0.05 | 0.05 | 46 | 1008.4 |
| 20260505165533 | 27 | 50 | 3.2 | 19.3 | 0.00 | 0.05 | 0.05 | 46 | 1008.4 |
| 20260505165032 | 27 | 253 | 6.4 | 19.3 | 0.00 | 0.05 | 0.05 | 43 | 1008.4 |
| 20260505164541 | 27 | 253 | 3.2 | 19.3 | 0.00 | 0.05 | 0.05 | 49 | 1008.6 |
| 20260505164032 | 26 | 295 | 1.6 | 19.3 | 0.00 | 0.05 | 0.05 | 46 | 1008.7 |
| 20260505163532 | 26 | 22 | 8.0 | 19.3 | 0.00 | 0.05 | 0.05 | 44 | 1008.7 |
| 20260505163041 | 26 | 278 | 3.2 | 19.3 | 0.00 | 0.05 | 0.05 | 45 | 1008.8 |